createdAt,value
2022-09-05T00:00:16.110Z,0.00
2022-09-05T00:01:16.080Z,0.00
2022-09-05T00:02:17.038Z,1.10
2022-09-05T00:03:16.136Z,0.90
2022-09-05T00:04:24.218Z,0.90
2022-09-05T00:05:17.000Z,0.90
2022-09-05T00:06:16.089Z,1.10
2022-09-05T00:07:31.233Z,0.90
2022-09-05T00:08:16.977Z,0.70
2022-09-05T00:09:15.984Z,7.30
2022-09-05T00:10:16.005Z,0.20
2022-09-05T00:11:39.622Z,0.20
2022-09-05T00:12:16.924Z,0.60
2022-09-05T00:13:15.973Z,3.00
2022-09-05T00:14:15.903Z,0.60
2022-09-05T00:15:18.941Z,0.00
2022-09-05T00:16:16.029Z,0.20
2022-09-05T00:17:15.901Z,0.30
2022-09-05T00:22:12.886Z,0.00
2022-09-05T00:24:17.314Z,0.00
2022-09-05T00:24:22.001Z,0.00
2022-09-05T00:24:25.585Z,0.00
2022-09-05T00:24:27.147Z,0.00
2022-09-05T00:24:33.985Z,0.00
2022-09-05T00:24:36.645Z,0.00
2022-09-05T00:25:33.017Z,0.00
2022-09-05T00:26:16.776Z,0.00
2022-09-05T00:27:15.790Z,0.00
2022-09-05T00:28:26.494Z,0.00
2022-09-05T00:29:17.626Z,0.50
2022-09-05T00:31:05.901Z,0.50
2022-09-05T00:31:55.646Z,0.20
2022-09-05T00:32:16.800Z,0.90
2022-09-05T00:33:16.876Z,1.00
2022-09-05T00:34:15.679Z,6.00
2022-09-05T00:35:16.034Z,0.00
2022-09-05T00:36:15.685Z,0.00
2022-09-05T00:37:15.650Z,0.00
2022-09-05T00:38:15.637Z,0.00
2022-09-05T00:39:15.624Z,0.00
2022-09-05T00:40:17.980Z,0.00
2022-09-05T00:41:15.631Z,0.00
2022-09-05T00:42:15.587Z,0.00
2022-09-05T00:43:15.593Z,0.00
2022-09-05T00:44:15.579Z,0.00
2022-09-05T00:45:19.903Z,0.00
2022-09-05T00:46:15.610Z,0.00
2022-09-05T00:47:15.556Z,0.00
2022-09-05T00:48:15.526Z,0.00
2022-09-05T00:49:15.505Z,0.00
2022-09-05T00:50:41.326Z,0.00
2022-09-05T00:51:15.504Z,0.10
2022-09-05T00:52:17.443Z,0.00
2022-09-05T00:53:15.461Z,0.00
2022-09-05T00:54:15.826Z,0.00
2022-09-05T00:55:15.438Z,0.00
2022-09-05T00:56:15.428Z,0.00
2022-09-05T00:57:18.046Z,0.00
2022-09-05T00:58:15.402Z,3.50
2022-09-05T00:59:15.398Z,0.00
2022-09-05T01:00:17.904Z,0.00
2022-09-05T01:01:21.092Z,0.00
2022-09-05T01:02:16.501Z,0.00
2022-09-05T01:03:16.456Z,0.00
2022-09-05T01:04:15.336Z,0.00
2022-09-05T01:05:25.218Z,0.00
2022-09-05T01:06:15.314Z,0.80
2022-09-05T01:07:16.471Z,0.00
2022-09-05T01:08:15.287Z,0.40
2022-09-05T01:09:15.472Z,0.00
2022-09-05T01:10:15.264Z,0.00
2022-09-05T01:11:15.271Z,2.00
2022-09-05T01:12:15.242Z,2.00
2022-09-05T01:13:15.236Z,1.90
2022-09-05T01:14:15.222Z,1.60
2022-09-05T01:15:15.217Z,1.00
2022-09-05T01:16:15.293Z,2.20
2022-09-05T01:17:15.196Z,1.60
2022-09-05T01:18:15.178Z,0.00
2022-09-05T01:19:16.121Z,0.00
2022-09-05T01:20:19.179Z,0.00
2022-09-05T01:21:16.159Z,0.00
2022-09-05T01:22:15.137Z,0.00
2022-09-05T01:23:15.123Z,0.00
2022-09-05T01:24:15.233Z,0.00
2022-09-05T01:25:15.108Z,1.30
2022-09-05T01:26:15.118Z,0.00
2022-09-05T01:27:15.081Z,0.60
2022-09-05T01:29:15.111Z,0.00
2022-09-05T01:29:19.402Z,0.00
2022-09-05T01:30:15.047Z,0.00
2022-09-05T01:31:16.981Z,0.00
2022-09-05T01:32:15.021Z,0.00
2022-09-05T01:33:15.011Z,0.40
2022-09-05T01:34:15.002Z,0.50
2022-09-05T01:35:15.476Z,1.70
2022-09-05T01:36:14.980Z,0.00
2022-09-05T01:37:33.785Z,0.00
2022-09-05T01:38:15.953Z,0.10
2022-09-05T01:40:11.076Z,2.00
2022-09-05T01:40:16.847Z,0.20
2022-09-05T01:41:19.163Z,1.50
2022-09-05T01:42:14.908Z,0.20
2022-09-05T01:43:14.901Z,0.20
2022-09-05T01:44:14.904Z,0.20
2022-09-05T01:45:14.919Z,0.20
2022-09-05T01:46:14.921Z,0.30
2022-09-05T01:47:14.859Z,0.30
2022-09-05T01:48:15.842Z,0.20
2022-09-05T01:49:14.833Z,0.20
2022-09-05T01:50:29.420Z,2.90
2022-09-05T01:51:29.480Z,0.30
2022-09-05T01:52:15.792Z,0.00
2022-09-05T01:53:14.789Z,0.00
2022-09-05T01:54:24.418Z,0.00
2022-09-05T01:55:15.814Z,0.00
2022-09-05T01:56:14.816Z,0.00
2022-09-05T01:57:14.742Z,2.20
2022-09-05T01:58:15.755Z,0.20
2022-09-05T01:59:14.719Z,0.00
2022-09-05T02:00:14.711Z,0.70
2022-09-05T02:01:25.538Z,0.00
2022-09-05T02:02:15.765Z,1.90
2022-09-05T02:03:14.772Z,8.60
2022-09-05T02:04:14.681Z,0.00
2022-09-05T02:05:14.655Z,0.00
2022-09-05T02:06:14.639Z,0.00
2022-09-05T02:07:30.452Z,0.00
2022-09-05T02:08:15.619Z,0.00
2022-09-05T02:09:14.609Z,0.00
2022-09-05T02:10:14.594Z,0.00
2022-09-05T02:11:14.586Z,0.40
2022-09-05T02:12:14.598Z,3.70
2022-09-05T02:13:14.848Z,2.70
2022-09-05T02:14:14.684Z,1.50
2022-09-05T02:15:15.541Z,0.50
2022-09-05T02:16:14.535Z,0.00
2022-09-05T02:17:27.330Z,0.10
2022-09-05T02:18:16.879Z,1.20
2022-09-05T02:19:14.494Z,0.00
2022-09-05T02:20:14.488Z,0.00
2022-09-05T02:21:15.469Z,0.10
2022-09-05T02:22:14.461Z,0.10
2022-09-05T02:23:40.178Z,0.10
2022-09-05T02:24:15.440Z,3.40
2022-09-05T02:25:33.506Z,0.00
2022-09-05T02:26:15.422Z,0.70
2022-09-05T02:27:47.591Z,0.00
2022-09-05T02:28:15.482Z,0.00
2022-09-05T02:29:28.965Z,0.40
2022-09-05T02:30:16.341Z,0.00
2022-09-05T02:31:20.228Z,0.00
2022-09-05T02:32:15.363Z,0.10
2022-09-05T02:33:17.124Z,0.10
2022-09-05T02:34:14.329Z,0.20
2022-09-05T02:35:14.317Z,0.20
2022-09-05T02:36:14.304Z,0.50
2022-09-05T02:37:14.317Z,0.20
2022-09-05T02:40:07.755Z,0.30
2022-09-05T02:45:02.023Z,0.20
2022-09-05T02:45:02.583Z,0.50
2022-09-05T02:45:08.930Z,1.60
2022-09-05T02:45:09.055Z,0.20
2022-09-05T02:45:12.505Z,1.70
2022-09-05T02:45:14.651Z,0.40
2022-09-05T02:45:25.628Z,0.70
2022-09-05T02:46:15.368Z,0.40
2022-09-05T02:47:14.826Z,1.00
2022-09-05T02:48:17.397Z,0.90
2022-09-05T02:50:09.967Z,0.70
2022-09-05T02:52:38.123Z,2.70
2022-09-05T02:57:23.678Z,0.50
2022-09-05T02:57:38.558Z,0.40
2022-09-05T02:57:41.151Z,0.40
2022-09-05T02:57:42.127Z,0.90
2022-09-05T02:57:43.077Z,0.30
2022-09-05T02:57:46.091Z,2.10
2022-09-05T02:57:46.180Z,0.30
2022-09-05T02:58:15.487Z,0.50
2022-09-05T02:59:14.046Z,0.50
2022-09-05T03:00:14.037Z,0.50
2022-09-05T03:01:14.132Z,0.50
2022-09-05T03:02:25.040Z,0.50
2022-09-05T03:03:15.070Z,0.50
2022-09-05T03:04:14.268Z,0.70
2022-09-05T03:05:13.982Z,0.80
2022-09-05T03:06:14.056Z,2.50
2022-09-05T03:07:13.959Z,3.20
2022-09-05T03:08:13.943Z,0.50
2022-09-05T03:09:16.797Z,1.70
2022-09-05T03:10:13.933Z,0.60
2022-09-05T03:11:19.294Z,0.40
2022-09-05T03:12:28.174Z,0.70
2022-09-05T03:13:14.891Z,1.10
2022-09-05T03:14:13.876Z,3.60
2022-09-05T03:15:20.767Z,6.00
2022-09-05T03:16:14.899Z,3.30
2022-09-05T03:17:13.883Z,0.30
2022-09-05T03:18:20.366Z,0.70
2022-09-05T03:19:14.840Z,0.90
2022-09-05T03:20:13.812Z,1.20
2022-09-05T03:21:15.260Z,3.80
2022-09-05T03:22:13.790Z,5.30
2022-09-05T03:23:13.828Z,5.30
2022-09-05T03:24:13.764Z,5.00
2022-09-05T03:25:13.751Z,5.10
2022-09-05T03:26:13.763Z,5.20
2022-09-05T03:27:13.733Z,4.50
2022-09-05T03:28:13.724Z,4.30
2022-09-05T03:29:13.709Z,4.30
2022-09-05T03:30:13.702Z,1.90
2022-09-05T03:31:26.128Z,1.60
2022-09-05T03:32:13.687Z,3.80
2022-09-05T03:33:13.675Z,1.00
2022-09-05T03:34:13.861Z,3.00
2022-09-05T03:35:14.097Z,4.30
2022-09-05T03:36:13.631Z,1.30
2022-09-05T03:37:13.627Z,1.30
2022-09-05T03:38:13.607Z,1.00
2022-09-05T03:39:13.601Z,3.20
2022-09-05T03:40:16.360Z,1.30
2022-09-05T03:41:13.575Z,2.70
2022-09-05T03:42:14.869Z,1.40
2022-09-05T03:43:13.551Z,1.20
2022-09-05T03:44:13.547Z,1.00
2022-09-05T03:45:13.549Z,0.10
2022-09-05T03:46:13.628Z,0.00
2022-09-05T03:47:13.503Z,0.00
2022-09-05T03:48:27.952Z,0.00
2022-09-05T03:49:58.051Z,0.00
2022-09-05T03:54:39.699Z,0.00
2022-09-05T03:55:18.589Z,0.00
2022-09-05T03:57:05.969Z,0.00
2022-09-05T03:57:08.599Z,0.00
2022-09-05T03:57:25.812Z,0.00
2022-09-05T03:57:27.199Z,0.00
2022-09-05T03:57:27.829Z,0.00
2022-09-05T03:57:32.262Z,0.00
2022-09-05T03:58:16.855Z,0.60
2022-09-05T03:59:13.418Z,1.20
2022-09-05T04:00:13.359Z,0.50
2022-09-05T04:01:37.158Z,0.60
2022-09-05T04:06:58.359Z,2.90
2022-09-05T04:07:53.191Z,3.30
2022-09-05T04:08:17.535Z,0.60
2022-09-05T04:08:19.556Z,1.40
2022-09-05T04:08:23.832Z,0.00
2022-09-05T04:08:26.704Z,0.00
2022-09-05T04:09:22.648Z,0.40
2022-09-05T04:10:14.284Z,1.20
2022-09-05T04:11:13.230Z,0.00
2022-09-05T04:12:13.244Z,0.00
2022-09-05T04:13:13.209Z,3.20
2022-09-05T04:14:13.447Z,0.30
2022-09-05T04:15:13.184Z,0.00
2022-09-05T04:16:13.198Z,0.20
2022-09-05T04:17:13.335Z,0.00
2022-09-05T04:18:13.157Z,0.50
2022-09-05T04:19:13.138Z,0.00
2022-09-05T04:20:13.129Z,0.00
2022-09-05T04:21:13.117Z,0.60
2022-09-05T04:22:13.120Z,0.30
2022-09-05T04:23:15.615Z,0.00
2022-09-05T04:24:13.084Z,0.00
2022-09-05T04:25:13.074Z,0.00
2022-09-05T04:26:13.059Z,0.00
2022-09-05T04:27:13.139Z,0.60
2022-09-05T04:28:13.056Z,0.60
2022-09-05T04:29:13.026Z,0.60
2022-09-05T04:30:37.931Z,0.60
2022-09-05T04:31:14.083Z,0.90
2022-09-05T04:32:19.128Z,1.10
2022-09-05T04:33:14.027Z,1.20
2022-09-05T04:34:12.968Z,1.10
2022-09-05T04:35:12.955Z,1.10
2022-09-05T04:36:17.689Z,1.20
2022-09-05T04:37:15.198Z,1.30
2022-09-05T04:38:12.941Z,1.30
2022-09-05T04:39:12.907Z,1.40
2022-09-05T04:40:12.904Z,0.00
2022-09-05T04:41:12.904Z,0.00
2022-09-05T04:42:12.877Z,0.00
2022-09-05T04:43:12.865Z,0.00
2022-09-05T04:44:12.895Z,0.00
2022-09-05T04:45:12.840Z,0.00
2022-09-05T04:46:15.708Z,0.00
2022-09-05T04:47:15.597Z,0.00
2022-09-05T04:48:12.804Z,0.00
2022-09-05T04:49:12.793Z,0.00
2022-09-05T04:50:13.828Z,0.00
2022-09-05T04:51:13.355Z,0.00
2022-09-05T04:52:18.240Z,0.00
2022-09-05T04:53:13.902Z,0.00
2022-09-05T04:54:12.779Z,0.10
2022-09-05T04:55:12.748Z,0.00
2022-09-05T04:56:12.743Z,0.40
2022-09-05T04:57:14.347Z,0.00
2022-09-05T04:58:12.691Z,0.00
2022-09-05T05:02:51.983Z,1.10
2022-09-05T05:06:01.511Z,1.10
2022-09-05T05:06:03.557Z,0.00
2022-09-05T05:06:04.606Z,0.00
2022-09-05T05:06:09.093Z,0.80
2022-09-05T05:06:14.484Z,0.00
2022-09-05T05:06:19.738Z,0.80
2022-09-05T05:06:37.911Z,0.00
2022-09-05T05:07:13.738Z,0.00
2022-09-05T05:08:12.806Z,0.00
2022-09-05T05:09:12.565Z,0.00
2022-09-05T05:11:10.240Z,0.60
2022-09-05T05:16:06.309Z,0.90
2022-09-05T05:17:55.061Z,0.20
2022-09-05T05:17:57.652Z,0.60
2022-09-05T05:18:00.438Z,0.70
2022-09-05T05:18:12.358Z,0.40
2022-09-05T05:18:13.402Z,0.70
2022-09-05T05:18:16.391Z,0.60
2022-09-05T05:18:39.823Z,1.30
2022-09-05T05:19:18.816Z,1.20
2022-09-05T05:20:42.454Z,0.00
2022-09-05T05:21:13.490Z,0.00
2022-09-05T05:22:12.433Z,1.40
2022-09-05T05:23:12.406Z,1.60
2022-09-05T05:24:12.395Z,1.40
2022-09-05T05:25:12.387Z,5.00
2022-09-05T05:26:12.399Z,4.90
2022-09-05T05:27:12.359Z,5.40
2022-09-05T05:28:24.103Z,6.00
2022-09-05T05:29:16.392Z,5.20
2022-09-05T05:30:13.339Z,6.10
2022-09-05T05:31:12.375Z,5.60
2022-09-05T05:32:12.304Z,6.10
2022-09-05T05:33:13.301Z,6.00
2022-09-05T05:34:23.871Z,5.50
2022-09-05T05:35:13.273Z,5.90
2022-09-05T05:36:12.288Z,5.60
2022-09-05T05:37:12.242Z,5.30
2022-09-05T05:38:12.237Z,5.80
2022-09-05T05:39:12.327Z,6.10
2022-09-05T05:40:12.373Z,5.60
2022-09-05T05:41:12.210Z,5.50
2022-09-05T05:42:20.329Z,5.60
2022-09-05T05:43:13.311Z,5.20
2022-09-05T05:44:12.176Z,5.10
2022-09-05T05:45:12.174Z,5.00
2022-09-05T05:46:12.177Z,5.20
2022-09-05T05:47:12.137Z,5.40
2022-09-05T05:48:12.126Z,5.40
2022-09-05T05:49:12.117Z,5.50
2022-09-05T05:50:12.409Z,5.60
2022-09-05T05:51:12.091Z,6.10
2022-09-05T05:52:12.079Z,6.00
2022-09-05T05:53:12.065Z,6.00
2022-09-05T05:54:13.080Z,6.00
2022-09-05T05:55:33.977Z,6.20
2022-09-05T05:56:13.180Z,6.00
2022-09-05T05:57:15.118Z,5.90
2022-09-05T05:58:12.324Z,5.70
2022-09-05T05:59:11.998Z,5.60
2022-09-05T06:00:14.748Z,5.90
2022-09-05T06:01:21.862Z,5.90
2022-09-05T06:02:13.135Z,6.00
2022-09-05T06:03:26.655Z,6.40
2022-09-05T06:04:12.954Z,5.90
2022-09-05T06:05:11.930Z,6.10
2022-09-05T06:06:11.921Z,6.00
2022-09-05T06:07:12.155Z,5.90
2022-09-05T06:12:01.127Z,6.20
2022-09-05T06:14:48.848Z,5.90
2022-09-05T06:14:49.817Z,6.20
2022-09-05T06:14:50.907Z,6.00
2022-09-05T06:14:56.830Z,6.30
2022-09-05T06:14:57.362Z,5.80
2022-09-05T06:14:58.260Z,6.10
2022-09-05T06:15:16.611Z,6.20
2022-09-05T06:16:12.839Z,6.40
2022-09-05T06:17:11.815Z,6.50
2022-09-05T06:18:11.846Z,6.00
2022-09-05T06:19:11.795Z,6.00
2022-09-05T06:21:54.563Z,6.20
2022-09-05T06:22:11.118Z,6.00
2022-09-05T06:22:15.809Z,6.20
2022-09-05T06:23:33.540Z,6.30
2022-09-05T06:24:12.719Z,6.20
2022-09-05T06:25:16.934Z,6.80
2022-09-05T06:26:12.696Z,6.40
2022-09-05T06:27:11.701Z,6.70
2022-09-05T06:28:19.686Z,6.30
2022-09-05T06:29:12.660Z,6.20
2022-09-05T06:30:11.701Z,5.60
2022-09-05T06:31:27.666Z,5.80
2022-09-05T06:32:12.732Z,6.00
2022-09-05T06:33:11.621Z,6.40
2022-09-05T06:34:27.229Z,6.70
2022-09-05T06:35:12.597Z,6.20
2022-09-05T06:36:18.948Z,5.80
2022-09-05T06:37:11.571Z,6.00
2022-09-05T06:38:11.565Z,6.30
2022-09-05T06:39:11.576Z,6.50
2022-09-05T06:40:11.675Z,6.10
2022-09-05T06:41:11.532Z,6.20
2022-09-05T06:42:30.564Z,6.50
2022-09-05T06:43:12.526Z,6.40
2022-09-05T06:44:12.614Z,6.20
2022-09-05T06:45:27.836Z,6.40
2022-09-05T06:46:12.506Z,6.10
2022-09-05T06:47:32.501Z,5.90
2022-09-05T06:48:14.490Z,6.30
2022-09-05T06:49:31.047Z,6.30
2022-09-05T06:50:24.168Z,6.90
2022-09-05T06:52:29.616Z,9.20
2022-09-05T06:53:21.928Z,7.30
2022-09-05T06:54:21.696Z,6.40
2022-09-05T06:55:21.717Z,6.70
2022-09-05T06:56:26.069Z,6.10
2022-09-05T06:57:21.670Z,6.50
2022-09-05T06:58:21.658Z,6.50
2022-09-05T06:59:21.667Z,6.40
2022-09-05T07:00:22.207Z,6.30
2022-09-05T07:01:21.788Z,6.30
2022-09-05T07:02:42.710Z,6.40
2022-09-05T07:03:22.894Z,6.10
2022-09-05T07:04:54.020Z,5.90
2022-09-05T07:05:37.268Z,6.30
2022-09-05T07:06:22.570Z,6.10
2022-09-05T07:07:22.559Z,6.20
2022-09-05T07:08:34.918Z,6.10
2022-09-05T07:09:22.537Z,6.40
2022-09-05T07:10:38.333Z,6.80
2022-09-05T07:11:22.564Z,6.50
2022-09-05T07:12:21.528Z,6.50
2022-09-05T07:13:21.542Z,5.70
2022-09-05T07:14:21.840Z,6.50
2022-09-05T07:15:21.498Z,6.60
2022-09-05T07:16:32.224Z,6.40
2022-09-05T07:17:22.455Z,6.50
2022-09-05T07:18:21.443Z,6.00
2022-09-05T07:19:21.426Z,6.40
2022-09-05T07:20:22.073Z,6.60
2022-09-05T07:21:26.672Z,6.90
2022-09-05T07:22:46.701Z,6.70
2022-09-05T07:23:47.689Z,6.90
2022-09-05T07:24:53.242Z,6.70
2022-09-05T07:25:22.467Z,6.50
2022-09-05T07:26:47.973Z,6.30
2022-09-05T07:27:25.405Z,6.10
2022-09-05T07:28:26.537Z,6.30
2022-09-05T07:29:22.319Z,6.60
2022-09-05T07:30:21.309Z,6.60
2022-09-05T07:31:27.422Z,6.20
2022-09-05T07:32:24.547Z,6.30
2022-09-05T07:33:21.392Z,6.10
2022-09-05T07:34:21.821Z,6.10
2022-09-05T07:35:21.323Z,6.40
2022-09-05T07:36:21.246Z,5.60
2022-09-05T07:37:24.703Z,6.20
2022-09-05T07:38:21.259Z,6.30
2022-09-05T07:39:28.717Z,6.10
2022-09-05T07:40:27.343Z,6.00
2022-09-05T07:41:22.193Z,6.20
2022-09-05T07:42:21.297Z,5.60
2022-09-05T07:43:21.266Z,5.40
2022-09-05T07:44:22.291Z,5.80
2022-09-05T07:45:21.289Z,5.80
2022-09-05T07:46:21.190Z,5.40
2022-09-05T07:47:21.154Z,5.80
2022-09-05T07:48:22.325Z,6.20
2022-09-05T07:49:22.099Z,6.20
2022-09-05T07:54:22.056Z,5.20
2022-09-05T07:54:31.634Z,5.30
2022-09-05T07:56:49.300Z,5.90
2022-09-05T07:56:52.163Z,5.30
2022-09-05T07:56:54.994Z,5.30
2022-09-05T07:57:01.035Z,5.30
2022-09-05T07:57:02.241Z,5.00
2022-09-05T07:57:31.818Z,5.40
2022-09-05T07:58:23.128Z,5.60
2022-09-05T07:59:21.931Z,5.40
2022-09-05T08:00:25.576Z,5.30
2022-09-05T08:01:21.998Z,4.80
2022-09-05T08:02:20.966Z,5.60
2022-09-05T08:03:21.930Z,5.60
2022-09-05T08:04:20.970Z,5.20
2022-09-05T08:05:23.615Z,5.90
2022-09-05T08:06:48.021Z,5.10
2022-09-05T08:07:49.662Z,4.70
2022-09-05T08:08:23.022Z,5.00
2022-09-05T08:10:05.919Z,5.40
2022-09-05T08:10:35.619Z,5.50
2022-09-05T08:11:25.744Z,6.00
2022-09-05T08:12:28.121Z,5.90
2022-09-05T08:13:24.307Z,5.70
2022-09-05T08:14:44.532Z,4.80
2022-09-05T08:15:21.832Z,5.70
2022-09-05T08:16:20.994Z,4.90
2022-09-05T08:17:20.803Z,5.10
2022-09-05T08:18:21.798Z,4.70
2022-09-05T08:19:27.845Z,5.00
2022-09-05T08:20:20.771Z,4.80
2022-09-05T08:21:27.016Z,5.00
2022-09-05T08:22:21.779Z,4.80
2022-09-05T08:23:20.747Z,5.00
2022-09-05T08:24:20.734Z,5.20
2022-09-05T08:25:20.716Z,5.50
2022-09-05T08:26:20.708Z,5.60
2022-09-05T08:27:20.711Z,5.70
2022-09-05T08:28:20.737Z,5.10
2022-09-05T08:29:20.696Z,5.50
2022-09-05T08:30:26.582Z,4.80
2022-09-05T08:31:21.713Z,6.00
2022-09-05T08:32:21.987Z,5.20
2022-09-05T08:33:20.633Z,6.10
2022-09-05T08:34:23.239Z,5.00
2022-09-05T08:35:21.651Z,6.20
2022-09-05T08:36:20.629Z,4.80
2022-09-05T08:37:21.244Z,5.70
2022-09-05T08:38:20.582Z,5.80
2022-09-05T08:39:20.661Z,5.00
2022-09-05T08:40:20.616Z,5.20
2022-09-05T08:41:23.730Z,5.30
2022-09-05T08:42:21.535Z,5.30
2022-09-05T08:44:58.234Z,5.10
2022-09-05T08:46:39.701Z,4.90
2022-09-05T08:46:41.096Z,5.00
2022-09-05T08:46:42.190Z,4.80
2022-09-05T08:47:21.541Z,5.30
2022-09-05T08:48:20.476Z,5.20
2022-09-05T08:49:36.806Z,5.20
2022-09-05T08:50:21.480Z,5.30
2022-09-05T08:51:21.459Z,6.50
2022-09-05T08:52:20.434Z,5.00
2022-09-05T08:53:45.244Z,5.10
2022-09-05T08:54:21.426Z,5.40
2022-09-05T08:55:20.417Z,5.10
2022-09-05T08:56:20.543Z,9.30
2022-09-05T08:57:20.609Z,9.10
2022-09-05T08:58:20.366Z,7.50
2022-09-05T08:59:28.271Z,6.50
2022-09-05T09:00:24.578Z,5.50
2022-09-05T09:01:20.948Z,4.70
2022-09-05T09:02:47.076Z,4.70
2022-09-05T09:03:22.488Z,5.20
2022-09-05T09:04:41.676Z,7.10
2022-09-05T09:05:21.316Z,7.20
2022-09-05T09:06:20.283Z,14.40
2022-09-05T09:07:51.313Z,9.50
2022-09-05T09:08:22.615Z,9.90
2022-09-05T09:09:20.257Z,5.60
2022-09-05T09:10:25.525Z,5.70
2022-09-05T09:11:21.235Z,5.90
2022-09-05T09:12:20.225Z,5.40
2022-09-05T09:13:20.371Z,7.50
2022-09-05T09:14:30.501Z,6.10
2022-09-05T09:15:21.191Z,5.60
2022-09-05T09:16:20.242Z,6.50
2022-09-05T09:17:20.172Z,6.80
2022-09-05T09:18:20.164Z,7.00
2022-09-05T09:19:20.190Z,3.80
2022-09-05T09:20:21.142Z,7.60
2022-09-05T09:21:20.135Z,1.50
2022-09-05T09:22:20.137Z,0.30
2022-09-05T09:23:32.067Z,1.00
2022-09-05T09:24:21.125Z,0.70
2022-09-05T09:25:25.118Z,0.60
2022-09-05T09:26:21.085Z,0.90
2022-09-05T09:27:27.263Z,1.60
2022-09-05T09:28:50.419Z,0.90
2022-09-05T09:29:21.052Z,1.00
2022-09-05T09:30:20.165Z,0.20
2022-09-05T09:31:20.094Z,0.90
2022-09-05T09:32:20.077Z,0.50
2022-09-05T09:33:20.129Z,0.40
2022-09-05T09:34:22.319Z,0.80
2022-09-05T09:35:20.161Z,0.80
2022-09-05T09:36:19.988Z,0.30
2022-09-05T09:37:24.194Z,0.40
2022-09-05T09:38:20.965Z,0.40
2022-09-05T09:39:38.725Z,0.70
2022-09-05T09:40:21.025Z,0.80
2022-09-05T09:41:19.935Z,0.60
2022-09-05T09:42:32.694Z,0.30
2022-09-05T09:43:20.920Z,0.30
2022-09-05T09:44:19.945Z,0.20
2022-09-05T09:45:22.972Z,0.40
2022-09-05T09:46:20.990Z,0.30
2022-09-05T09:47:19.875Z,0.30
2022-09-05T09:48:19.921Z,0.40
2022-09-05T09:49:23.149Z,0.40
2022-09-05T09:50:19.849Z,0.30
2022-09-05T09:51:19.858Z,0.30
2022-09-05T09:52:20.886Z,0.20
2022-09-05T09:53:19.821Z,0.30
2022-09-05T09:54:19.820Z,0.30
2022-09-05T09:55:21.176Z,0.30
2022-09-05T09:56:19.791Z,0.30
2022-09-05T09:57:19.784Z,0.40
2022-09-05T09:58:19.768Z,0.40
2022-09-05T09:59:22.743Z,0.30
2022-09-05T10:00:19.754Z,0.40
2022-09-05T10:01:35.403Z,0.30
2022-09-05T10:03:26.966Z,0.40
2022-09-05T10:06:30.176Z,0.30
2022-09-05T10:10:34.906Z,0.30
2022-09-05T10:10:44.355Z,0.40
2022-09-05T10:10:44.578Z,0.30
2022-09-05T10:10:49.219Z,0.40
2022-09-05T10:10:51.121Z,0.60
2022-09-05T10:10:57.449Z,0.30
2022-09-05T10:11:09.181Z,0.40
2022-09-05T10:12:23.775Z,0.40
2022-09-05T10:13:19.682Z,0.40
2022-09-05T10:14:24.175Z,0.30
2022-09-05T10:15:31.161Z,0.30
2022-09-05T10:16:20.640Z,0.30
2022-09-05T10:17:19.607Z,0.50
2022-09-05T10:18:20.477Z,0.40
2022-09-05T10:19:19.592Z,0.40
2022-09-05T10:20:19.557Z,0.30
2022-09-05T10:21:19.570Z,0.60
2022-09-05T10:22:37.288Z,0.30
2022-09-05T10:23:20.584Z,0.30
2022-09-05T10:24:19.523Z,0.30
2022-09-05T10:25:20.153Z,0.40
2022-09-05T10:26:19.532Z,0.40
2022-09-05T10:27:19.489Z,0.40
2022-09-05T10:28:19.480Z,0.30
2022-09-05T10:29:37.181Z,0.40
2022-09-05T10:30:25.238Z,0.50
2022-09-05T10:32:49.237Z,0.40
2022-09-05T10:35:10.444Z,0.40
2022-09-05T10:35:14.308Z,0.30
2022-09-05T10:35:14.385Z,0.30
2022-09-05T10:35:23.568Z,0.90
2022-09-05T10:36:19.552Z,0.30
2022-09-05T10:37:19.417Z,0.30
2022-09-05T10:38:19.471Z,0.40
2022-09-05T10:39:19.372Z,0.40
2022-09-05T10:40:19.418Z,0.40
2022-09-05T10:41:22.456Z,0.50
2022-09-05T10:42:19.351Z,0.40
2022-09-05T10:43:19.340Z,0.40
2022-09-05T10:44:19.983Z,0.30
2022-09-05T10:45:19.316Z,0.40
2022-09-05T10:46:49.148Z,0.40
2022-09-05T10:47:20.406Z,0.40
2022-09-05T10:48:19.323Z,0.50
2022-09-05T10:49:19.287Z,0.40
2022-09-05T10:50:19.277Z,0.30
2022-09-05T10:51:27.752Z,0.40
2022-09-05T10:52:20.291Z,0.30
2022-09-05T10:53:19.238Z,0.40
2022-09-05T10:54:19.251Z,0.50
2022-09-05T10:55:19.989Z,0.40
2022-09-05T10:56:19.239Z,0.40
2022-09-05T10:57:19.219Z,0.40
2022-09-05T10:58:29.031Z,0.40
2022-09-05T11:01:33.427Z,0.40
2022-09-05T11:02:19.266Z,0.40
2022-09-05T11:02:19.955Z,0.40
2022-09-05T11:02:33.538Z,0.40
2022-09-05T11:03:23.038Z,0.40
2022-09-05T11:04:19.316Z,0.40
2022-09-05T11:05:19.170Z,0.30
2022-09-05T11:06:20.945Z,0.40
2022-09-05T11:07:26.657Z,0.30
2022-09-05T11:08:20.119Z,0.40
2022-09-05T11:09:19.087Z,0.30
2022-09-05T11:10:19.081Z,0.40
2022-09-05T11:11:28.358Z,0.30
2022-09-05T11:12:20.089Z,0.40
2022-09-05T11:13:19.117Z,0.40
2022-09-05T11:14:25.119Z,0.40
2022-09-05T11:15:20.081Z,0.40
2022-09-05T11:16:19.127Z,0.40
2022-09-05T11:17:19.087Z,0.40
2022-09-05T11:18:19.019Z,0.30
2022-09-05T11:19:19.023Z,0.30
2022-09-05T11:20:22.415Z,0.50
2022-09-05T11:21:20.009Z,0.40
2022-09-05T11:22:24.021Z,0.40
2022-09-05T11:23:20.039Z,0.30
2022-09-05T11:24:18.955Z,0.40
2022-09-05T11:25:18.958Z,0.40
2022-09-05T11:26:19.983Z,0.40
2022-09-05T11:27:24.692Z,0.50
2022-09-05T11:28:19.924Z,0.50
2022-09-05T11:29:18.936Z,0.40
2022-09-05T11:30:30.523Z,0.30
2022-09-05T11:31:20.052Z,0.40
2022-09-05T11:36:14.652Z,0.40
2022-09-05T11:36:57.883Z,0.40
2022-09-05T11:39:48.130Z,0.30
2022-09-05T11:39:52.703Z,0.90
2022-09-05T11:39:56.951Z,0.50
2022-09-05T11:40:02.336Z,0.70
2022-09-05T11:40:09.798Z,0.90
2022-09-05T11:40:10.854Z,0.30
2022-09-05T11:40:28.492Z,0.80
2022-09-05T11:41:20.496Z,1.10
2022-09-05T11:42:18.782Z,0.90
2022-09-05T11:43:18.801Z,0.70
2022-09-05T11:44:26.030Z,0.70
2022-09-05T11:45:19.763Z,0.70
2022-09-05T11:46:18.801Z,0.70
2022-09-05T11:47:30.102Z,0.90
2022-09-05T11:48:22.747Z,0.80
2022-09-05T11:49:18.761Z,1.70
2022-09-05T11:50:18.769Z,1.00
2022-09-05T11:51:18.706Z,1.30
2022-09-05T11:52:19.711Z,0.90
2022-09-05T11:53:18.688Z,1.10
2022-09-05T11:54:18.663Z,0.70
2022-09-05T11:55:21.025Z,0.60
2022-09-05T11:56:18.660Z,0.70
2022-09-05T11:57:32.768Z,0.90
2022-09-05T11:58:43.763Z,1.00
2022-09-05T11:59:33.411Z,1.00
2022-09-05T12:00:32.042Z,1.00
2022-09-05T12:01:41.151Z,0.80
2022-09-05T12:02:24.033Z,0.20
2022-09-05T12:03:57.063Z,0.30
2022-09-05T12:04:19.565Z,0.30
2022-09-05T12:05:49.921Z,0.20
2022-09-05T12:06:19.629Z,0.30
2022-09-05T12:07:29.997Z,0.30
2022-09-05T12:08:19.594Z,0.20
2022-09-05T12:09:23.461Z,0.70
2022-09-05T12:10:45.675Z,0.80
2022-09-05T12:11:19.543Z,0.50
2022-09-05T12:12:19.379Z,0.40
2022-09-05T12:13:21.895Z,0.40
2022-09-05T12:14:25.428Z,0.70
2022-09-05T12:15:19.448Z,0.50
2022-09-05T12:16:18.507Z,0.70
2022-09-05T12:17:34.731Z,1.00
2022-09-05T12:18:21.618Z,0.60
2022-09-05T12:19:20.166Z,0.80
2022-09-05T12:20:22.038Z,0.60
2022-09-05T12:21:19.677Z,0.50
2022-09-05T12:22:23.808Z,0.90
2022-09-05T12:23:27.621Z,0.80
2022-09-05T12:25:16.053Z,0.30
2022-09-05T12:25:35.268Z,0.20
2022-09-05T12:27:41.008Z,0.20
2022-09-05T12:27:43.063Z,0.20
2022-09-05T12:29:26.736Z,0.20
2022-09-05T12:29:32.961Z,0.30
2022-09-05T12:30:19.302Z,0.20
2022-09-05T12:32:58.068Z,0.20
2022-09-05T12:33:24.357Z,0.20
2022-09-05T12:36:04.482Z,0.60
2022-09-05T12:36:06.598Z,0.50
2022-09-05T12:36:08.055Z,0.70
2022-09-05T12:40:05.131Z,0.80
2022-09-05T12:40:28.615Z,1.50
2022-09-05T12:40:44.898Z,0.50
2022-09-05T12:41:01.281Z,0.80
2022-09-05T12:41:36.125Z,0.90
2022-09-05T12:41:46.107Z,0.80
2022-09-05T12:42:25.820Z,0.80
2022-09-05T12:44:04.630Z,1.30
2022-09-05T12:44:42.252Z,1.00
2022-09-05T12:45:27.185Z,1.30
2022-09-05T12:46:24.433Z,1.00
2022-09-05T12:47:20.536Z,1.00
2022-09-05T12:48:18.121Z,1.20
2022-09-05T12:49:18.111Z,0.90
2022-09-05T12:50:18.108Z,4.60
2022-09-05T12:51:46.658Z,1.10
2022-09-05T12:52:19.099Z,1.10
2022-09-05T12:53:18.073Z,0.60
2022-09-05T12:54:27.874Z,1.10
2022-09-05T12:55:19.099Z,1.20
2022-09-05T12:58:28.718Z,1.10
2022-09-05T13:02:27.785Z,11.80
2022-09-05T13:02:59.336Z,7.90
2022-09-05T13:03:01.187Z,7.70
2022-09-05T13:03:09.579Z,9.20
2022-09-05T13:03:13.004Z,7.80
2022-09-05T13:03:13.937Z,7.30
2022-09-05T13:03:28.152Z,6.90
2022-09-05T13:04:20.836Z,7.30
2022-09-05T13:05:18.123Z,6.10
2022-09-05T13:06:24.822Z,5.00
2022-09-05T13:07:18.947Z,7.10
2022-09-05T13:08:17.905Z,7.40
2022-09-05T13:09:17.903Z,7.10
2022-09-05T13:14:48.093Z,7.50
2022-09-05T13:14:48.431Z,7.30
2022-09-05T13:14:49.304Z,7.20
2022-09-05T13:14:54.226Z,7.30
2022-09-05T13:15:03.210Z,6.60
2022-09-05T13:15:23.182Z,6.20
2022-09-05T13:16:23.235Z,4.40
2022-09-05T13:17:18.846Z,4.70
2022-09-05T13:18:17.819Z,6.30
2022-09-05T13:19:17.797Z,6.80
2022-09-05T13:20:17.813Z,6.30
2022-09-05T13:21:22.981Z,6.80